sensor_id;sensor_type;location;lat;lon;timestamp;temperature;humidity
80695;DHT22;70059;42.702;23.312;2023-10-31T00:00:22;12.90;61.20
80695;DHT22;70059;42.702;23.312;2023-10-31T00:02:47;13.00;60.50
80695;DHT22;70059;42.702;23.312;2023-10-31T00:05:13;12.80;60.40
80695;DHT22;70059;42.702;23.312;2023-10-31T00:07:39;12.80;61.50
80695;DHT22;70059;42.702;23.312;2023-10-31T00:10:05;13.00;61.40
80695;DHT22;70059;42.702;23.312;2023-10-31T00:12:30;13.10;59.90
80695;DHT22;70059;42.702;23.312;2023-10-31T00:14:57;13.20;59.90
80695;DHT22;70059;42.702;23.312;2023-10-31T00:17:22;12.90;60.10
80695;DHT22;70059;42.702;23.312;2023-10-31T00:19:48;12.50;61.80
80695;DHT22;70059;42.702;23.312;2023-10-31T00:22:14;12.50;63.50
80695;DHT22;70059;42.702;23.312;2023-10-31T00:24:39;12.70;62.20
80695;DHT22;70059;42.702;23.312;2023-10-31T00:27:05;12.80;62.30
80695;DHT22;70059;42.702;23.312;2023-10-31T00:29:31;12.80;61.90
80695;DHT22;70059;42.702;23.312;2023-10-31T00:31:56;12.80;62.00
80695;DHT22;70059;42.702;23.312;2023-10-31T00:34:22;12.70;61.90
80695;DHT22;70059;42.702;23.312;2023-10-31T00:36:48;12.80;61.90
80695;DHT22;70059;42.702;23.312;2023-10-31T00:39:13;12.60;61.50
80695;DHT22;70059;42.702;23.312;2023-10-31T00:41:39;12.60;62.80
80695;DHT22;70059;42.702;23.312;2023-10-31T00:44:10;12.70;62.20
80695;DHT22;70059;42.702;23.312;2023-10-31T00:46:35;12.40;62.00
80695;DHT22;70059;42.702;23.312;2023-10-31T00:49:01;12.20;63.90
80695;DHT22;70059;42.702;23.312;2023-10-31T00:51:26;12.40;64.00
80695;DHT22;70059;42.702;23.312;2023-10-31T00:53:52;12.60;62.60
80695;DHT22;70059;42.702;23.312;2023-10-31T00:56:18;12.70;62.00
80695;DHT22;70059;42.702;23.312;2023-10-31T00:58:43;12.60;62.20
80695;DHT22;70059;42.702;23.312;2023-10-31T01:01:09;12.50;62.40
80695;DHT22;70059;42.702;23.312;2023-10-31T01:03:35;12.50;63.30
80695;DHT22;70059;42.702;23.312;2023-10-31T01:06:00;12.50;63.40
80695;DHT22;70059;42.702;23.312;2023-10-31T01:08:26;12.50;62.50
80695;DHT22;70059;42.702;23.312;2023-10-31T01:10:52;12.40;63.60
80695;DHT22;70059;42.702;23.312;2023-10-31T01:13:18;12.40;64.20
80695;DHT22;70059;42.702;23.312;2023-10-31T01:15:44;12.40;63.30
80695;DHT22;70059;42.702;23.312;2023-10-31T01:18:09;12.40;63.50
80695;DHT22;70059;42.702;23.312;2023-10-31T01:20:35;12.40;63.80
80695;DHT22;70059;42.702;23.312;2023-10-31T01:23:02;12.40;63.70
80695;DHT22;70059;42.702;23.312;2023-10-31T01:25:27;12.40;63.80
80695;DHT22;70059;42.702;23.312;2023-10-31T01:27:53;12.40;63.50
80695;DHT22;70059;42.702;23.312;2023-10-31T01:30:18;12.50;62.60
80695;DHT22;70059;42.702;23.312;2023-10-31T01:32:44;12.50;62.10
80695;DHT22;70059;42.702;23.312;2023-10-31T01:35:10;12.50;62.90
80695;DHT22;70059;42.702;23.312;2023-10-31T01:37:35;12.40;63.20
80695;DHT22;70059;42.702;23.312;2023-10-31T01:40:01;12.40;63.20
80695;DHT22;70059;42.702;23.312;2023-10-31T01:42:29;12.40;63.50
80695;DHT22;70059;42.702;23.312;2023-10-31T01:44:55;12.30;64.10
80695;DHT22;70059;42.702;23.312;2023-10-31T01:47:20;12.20;64.10
80695;DHT22;70059;42.702;23.312;2023-10-31T01:49:49;12.20;64.40
80695;DHT22;70059;42.702;23.312;2023-10-31T01:52:16;12.20;64.60
80695;DHT22;70059;42.702;23.312;2023-10-31T01:54:43;12.20;64.60
80695;DHT22;70059;42.702;23.312;2023-10-31T01:57:09;12.20;64.30
80695;DHT22;70059;42.702;23.312;2023-10-31T01:59:35;12.30;63.60
80695;DHT22;70059;42.702;23.312;2023-10-31T02:02:01;12.30;63.70
80695;DHT22;70059;42.702;23.312;2023-10-31T02:04:27;12.10;63.80
80695;DHT22;70059;42.702;23.312;2023-10-31T02:06:52;11.90;65.00
80695;DHT22;70059;42.702;23.312;2023-10-31T02:09:19;12.00;65.20
80695;DHT22;70059;42.702;23.312;2023-10-31T02:11:45;12.00;65.00
80695;DHT22;70059;42.702;23.312;2023-10-31T02:14:11;12.00;65.10
80695;DHT22;70059;42.702;23.312;2023-10-31T02:16:36;12.00;65.80
80695;DHT22;70059;42.702;23.312;2023-10-31T02:19:03;12.00;66.70
80695;DHT22;70059;42.702;23.312;2023-10-31T02:21:29;12.00;66.00
80695;DHT22;70059;42.702;23.312;2023-10-31T02:24:00;11.90;65.60
80695;DHT22;70059;42.702;23.312;2023-10-31T02:26:33;11.90;66.20
80695;DHT22;70059;42.702;23.312;2023-10-31T02:29:01;11.90;65.40
80695;DHT22;70059;42.702;23.312;2023-10-31T02:31:27;11.90;65.40
80695;DHT22;70059;42.702;23.312;2023-10-31T02:33:53;12.00;65.80
80695;DHT22;70059;42.702;23.312;2023-10-31T02:36:19;12.00;66.40
80695;DHT22;70059;42.702;23.312;2023-10-31T02:38:45;12.00;66.00
80695;DHT22;70059;42.702;23.312;2023-10-31T02:41:11;12.10;64.80
80695;DHT22;70059;42.702;23.312;2023-10-31T02:43:38;12.00;64.90
80695;DHT22;70059;42.702;23.312;2023-10-31T02:46:04;12.00;65.20
80695;DHT22;70059;42.702;23.312;2023-10-31T02:48:30;11.90;65.50
80695;DHT22;70059;42.702;23.312;2023-10-31T02:50:57;11.90;65.60
80695;DHT22;70059;42.702;23.312;2023-10-31T02:53:23;11.90;67.00
80695;DHT22;70059;42.702;23.312;2023-10-31T02:55:49;11.80;66.30
80695;DHT22;70059;42.702;23.312;2023-10-31T02:58:14;11.90;65.70
80695;DHT22;70059;42.702;23.312;2023-10-31T03:00:42;11.70;65.90
80695;DHT22;70059;42.702;23.312;2023-10-31T03:03:08;11.80;66.60
80695;DHT22;70059;42.702;23.312;2023-10-31T03:05:34;11.70;66.40
80695;DHT22;70059;42.702;23.312;2023-10-31T03:08:00;11.70;66.60
80695;DHT22;70059;42.702;23.312;2023-10-31T03:10:26;11.70;66.20
80695;DHT22;70059;42.702;23.312;2023-10-31T03:12:52;11.70;65.80
80695;DHT22;70059;42.702;23.312;2023-10-31T03:15:18;11.70;66.30
80695;DHT22;70059;42.702;23.312;2023-10-31T03:17:43;11.70;68.40
80695;DHT22;70059;42.702;23.312;2023-10-31T03:20:09;11.60;68.00
80695;DHT22;70059;42.702;23.312;2023-10-31T03:22:35;11.50;68.60
80695;DHT22;70059;42.702;23.312;2023-10-31T03:25:01;11.50;69.40
80695;DHT22;70059;42.702;23.312;2023-10-31T03:27:27;11.50;68.60
80695;DHT22;70059;42.702;23.312;2023-10-31T03:29:53;11.50;68.50
80695;DHT22;70059;42.702;23.312;2023-10-31T03:32:19;11.50;67.50
80695;DHT22;70059;42.702;23.312;2023-10-31T03:34:44;11.50;66.20
80695;DHT22;70059;42.702;23.312;2023-10-31T03:37:10;11.40;66.30
80695;DHT22;70059;42.702;23.312;2023-10-31T03:39:35;11.20;66.20
80695;DHT22;70059;42.702;23.312;2023-10-31T03:42:01;11.20;66.70
80695;DHT22;70059;42.702;23.312;2023-10-31T03:44:27;11.30;65.80
80695;DHT22;70059;42.702;23.312;2023-10-31T03:46:52;11.30;65.40
80695;DHT22;70059;42.702;23.312;2023-10-31T03:49:18;11.30;65.20
80695;DHT22;70059;42.702;23.312;2023-10-31T03:51:44;11.40;64.60
80695;DHT22;70059;42.702;23.312;2023-10-31T03:54:09;11.30;65.50
80695;DHT22;70059;42.702;23.312;2023-10-31T03:56:40;11.20;66.70
80695;DHT22;70059;42.702;23.312;2023-10-31T03:59:05;10.90;67.30
80695;DHT22;70059;42.702;23.312;2023-10-31T04:01:31;10.90;68.60
80695;DHT22;70059;42.702;23.312;2023-10-31T04:03:57;10.80;67.90
80695;DHT22;70059;42.702;23.312;2023-10-31T04:06:22;10.90;67.80
80695;DHT22;70059;42.702;23.312;2023-10-31T04:08:48;10.70;67.40
80695;DHT22;70059;42.702;23.312;2023-10-31T04:11:13;10.80;67.20
80695;DHT22;70059;42.702;23.312;2023-10-31T04:13:39;10.70;66.80
80695;DHT22;70059;42.702;23.312;2023-10-31T04:16:05;10.60;67.00
80695;DHT22;70059;42.702;23.312;2023-10-31T04:18:31;10.60;67.70
80695;DHT22;70059;42.702;23.312;2023-10-31T04:20:56;10.70;67.40
80695;DHT22;70059;42.702;23.312;2023-10-31T04:23:22;10.70;67.90
80695;DHT22;70059;42.702;23.312;2023-10-31T04:25:48;10.70;67.90
80695;DHT22;70059;42.702;23.312;2023-10-31T04:28:13;10.70;68.10
80695;DHT22;70059;42.702;23.312;2023-10-31T04:30:40;10.70;68.60
80695;DHT22;70059;42.702;23.312;2023-10-31T04:33:05;10.60;68.70
80695;DHT22;70059;42.702;23.312;2023-10-31T04:35:35;10.50;68.80
80695;DHT22;70059;42.702;23.312;2023-10-31T04:38:00;10.50;69.30
80695;DHT22;70059;42.702;23.312;2023-10-31T04:40:26;10.60;69.10
80695;DHT22;70059;42.702;23.312;2023-10-31T04:42:52;10.70;67.30
80695;DHT22;70059;42.702;23.312;2023-10-31T04:45:17;10.70;67.40
80695;DHT22;70059;42.702;23.312;2023-10-31T04:47:43;10.70;67.90
80695;DHT22;70059;42.702;23.312;2023-10-31T04:50:09;10.60;67.70
80695;DHT22;70059;42.702;23.312;2023-10-31T04:52:35;10.60;68.10
80695;DHT22;70059;42.702;23.312;2023-10-31T04:55:01;10.60;67.90
80695;DHT22;70059;42.702;23.312;2023-10-31T04:57:26;10.60;69.20
80695;DHT22;70059;42.702;23.312;2023-10-31T04:59:52;10.60;68.40
80695;DHT22;70059;42.702;23.312;2023-10-31T05:02:21;10.50;68.70
80695;DHT22;70059;42.702;23.312;2023-10-31T05:04:48;10.60;68.60
80695;DHT22;70059;42.702;23.312;2023-10-31T05:07:19;10.50;68.80
80695;DHT22;70059;42.702;23.312;2023-10-31T05:09:45;10.50;68.70
80695;DHT22;70059;42.702;23.312;2023-10-31T05:12:10;10.60;68.80
80695;DHT22;70059;42.702;23.312;2023-10-31T05:14:36;10.50;68.60
80695;DHT22;70059;42.702;23.312;2023-10-31T05:17:02;10.50;68.90
80695;DHT22;70059;42.702;23.312;2023-10-31T05:19:27;10.50;69.30
80695;DHT22;70059;42.702;23.312;2023-10-31T05:21:53;10.50;68.80
80695;DHT22;70059;42.702;23.312;2023-10-31T05:24:19;10.40;69.10
80695;DHT22;70059;42.702;23.312;2023-10-31T05:26:46;10.40;69.30
80695;DHT22;70059;42.702;23.312;2023-10-31T05:29:12;10.40;69.50
80695;DHT22;70059;42.702;23.312;2023-10-31T05:31:38;10.50;69.20
80695;DHT22;70059;42.702;23.312;2023-10-31T05:34:04;10.60;68.30
80695;DHT22;70059;42.702;23.312;2023-10-31T05:36:30;10.60;68.80
80695;DHT22;70059;42.702;23.312;2023-10-31T05:38:56;10.60;68.90
80695;DHT22;70059;42.702;23.312;2023-10-31T05:41:22;10.70;68.90
80695;DHT22;70059;42.702;23.312;2023-10-31T05:43:47;10.70;68.90
80695;DHT22;70059;42.702;23.312;2023-10-31T05:46:13;10.70;69.20
80695;DHT22;70059;42.702;23.312;2023-10-31T05:48:40;10.70;68.70
80695;DHT22;70059;42.702;23.312;2023-10-31T05:51:19;10.80;68.50
80695;DHT22;70059;42.702;23.312;2023-10-31T05:53:48;10.90;68.10
80695;DHT22;70059;42.702;23.312;2023-10-31T05:56:14;11.00;67.80
80695;DHT22;70059;42.702;23.312;2023-10-31T05:58:41;11.00;67.20
80695;DHT22;70059;42.702;23.312;2023-10-31T06:01:07;10.90;67.70
80695;DHT22;70059;42.702;23.312;2023-10-31T06:03:33;11.00;67.90
80695;DHT22;70059;42.702;23.312;2023-10-31T06:05:59;11.00;67.70
80695;DHT22;70059;42.702;23.312;2023-10-31T06:08:25;11.10;67.70
80695;DHT22;70059;42.702;23.312;2023-10-31T06:10:53;11.20;67.60
80695;DHT22;70059;42.702;23.312;2023-10-31T06:13:20;11.20;67.10
80695;DHT22;70059;42.702;23.312;2023-10-31T06:15:45;11.20;67.20
80695;DHT22;70059;42.702;23.312;2023-10-31T06:18:11;11.20;67.70
80695;DHT22;70059;42.702;23.312;2023-10-31T06:20:38;11.30;67.30
80695;DHT22;70059;42.702;23.312;2023-10-31T06:23:05;11.40;67.10
80695;DHT22;70059;42.702;23.312;2023-10-31T06:25:31;11.60;65.70
80695;DHT22;70059;42.702;23.312;2023-10-31T06:27:56;11.90;64.60
80695;DHT22;70059;42.702;23.312;2023-10-31T06:30:22;12.00;64.10
80695;DHT22;70059;42.702;23.312;2023-10-31T06:32:53;12.30;63.10
80695;DHT22;70059;42.702;23.312;2023-10-31T06:35:22;12.70;62.20
80695;DHT22;70059;42.702;23.312;2023-10-31T06:37:51;13.10;60.50
80695;DHT22;70059;42.702;23.312;2023-10-31T06:40:16;13.40;58.60
80695;DHT22;70059;42.702;23.312;2023-10-31T06:42:42;13.70;57.80
80695;DHT22;70059;42.702;23.312;2023-10-31T06:45:08;14.00;56.70
80695;DHT22;70059;42.702;23.312;2023-10-31T06:47:34;14.40;55.20
80695;DHT22;70059;42.702;23.312;2023-10-31T06:50:00;14.40;54.80
80695;DHT22;70059;42.702;23.312;2023-10-31T06:52:25;14.50;56.40
80695;DHT22;70059;42.702;23.312;2023-10-31T06:54:51;14.70;54.50
80695;DHT22;70059;42.702;23.312;2023-10-31T06:57:17;15.30;52.60
80695;DHT22;70059;42.702;23.312;2023-10-31T06:59:43;15.80;51.60
80695;DHT22;70059;42.702;23.312;2023-10-31T07:02:09;16.00;50.50
80695;DHT22;70059;42.702;23.312;2023-10-31T07:04:35;16.50;49.20
80695;DHT22;70059;42.702;23.312;2023-10-31T07:07:00;17.00;47.50
80695;DHT22;70059;42.702;23.312;2023-10-31T07:09:26;17.40;46.50
80695;DHT22;70059;42.702;23.312;2023-10-31T07:11:53;17.60;45.50
80695;DHT22;70059;42.702;23.312;2023-10-31T07:14:18;17.70;44.80
80695;DHT22;70059;42.702;23.312;2023-10-31T07:16:44;17.60;45.70
80695;DHT22;70059;42.702;23.312;2023-10-31T07:19:10;17.80;44.70
80695;DHT22;70059;42.702;23.312;2023-10-31T07:21:36;18.00;44.00
80695;DHT22;70059;42.702;23.312;2023-10-31T07:24:02;17.40;45.40
80695;DHT22;70059;42.702;23.312;2023-10-31T07:26:28;17.20;46.40
80695;DHT22;70059;42.702;23.312;2023-10-31T07:28:53;17.30;46.30
80695;DHT22;70059;42.702;23.312;2023-10-31T07:31:19;16.90;46.50
80695;DHT22;70059;42.702;23.312;2023-10-31T07:33:45;16.90;47.50
80695;DHT22;70059;42.702;23.312;2023-10-31T07:36:11;17.20;47.60
80695;DHT22;70059;42.702;23.312;2023-10-31T07:38:37;17.50;46.00
80695;DHT22;70059;42.702;23.312;2023-10-31T07:41:03;17.50;45.80
80695;DHT22;70059;42.702;23.312;2023-10-31T07:43:29;17.60;45.70
80695;DHT22;70059;42.702;23.312;2023-10-31T07:45:54;17.70;45.70
80695;DHT22;70059;42.702;23.312;2023-10-31T07:48:20;17.80;45.10
80695;DHT22;70059;42.702;23.312;2023-10-31T07:50:46;18.20;44.60
80695;DHT22;70059;42.702;23.312;2023-10-31T07:53:11;18.70;44.10
80695;DHT22;70059;42.702;23.312;2023-10-31T07:55:37;19.30;41.50
80695;DHT22;70059;42.702;23.312;2023-10-31T07:58:03;20.30;38.90
80695;DHT22;70059;42.702;23.312;2023-10-31T08:00:28;21.10;37.50
80695;DHT22;70059;42.702;23.312;2023-10-31T08:02:54;21.80;36.40
80695;DHT22;70059;42.702;23.312;2023-10-31T08:05:20;22.40;34.50
80695;DHT22;70059;42.702;23.312;2023-10-31T08:07:45;23.10;33.40
80695;DHT22;70059;42.702;23.312;2023-10-31T08:10:11;23.60;32.20
80695;DHT22;70059;42.702;23.312;2023-10-31T08:12:37;23.90;31.70
80695;DHT22;70059;42.702;23.312;2023-10-31T08:15:02;24.20;30.80
80695;DHT22;70059;42.702;23.312;2023-10-31T08:17:28;24.80;29.40
80695;DHT22;70059;42.702;23.312;2023-10-31T08:19:54;25.30;28.90
80695;DHT22;70059;42.702;23.312;2023-10-31T08:22:20;26.00;27.80
80695;DHT22;70059;42.702;23.312;2023-10-31T08:24:50;26.50;27.00
80695;DHT22;70059;42.702;23.312;2023-10-31T08:27:15;27.10;26.50
80695;DHT22;70059;42.702;23.312;2023-10-31T08:29:41;27.50;25.70
80695;DHT22;70059;42.702;23.312;2023-10-31T08:32:07;28.30;24.60
80695;DHT22;70059;42.702;23.312;2023-10-31T08:34:32;28.50;24.00
80695;DHT22;70059;42.702;23.312;2023-10-31T08:36:58;29.00;23.40
80695;DHT22;70059;42.702;23.312;2023-10-31T08:39:25;29.40;22.90
80695;DHT22;70059;42.702;23.312;2023-10-31T08:41:55;29.80;22.00
80695;DHT22;70059;42.702;23.312;2023-10-31T08:44:21;29.80;22.10
80695;DHT22;70059;42.702;23.312;2023-10-31T08:46:47;30.40;21.50
80695;DHT22;70059;42.702;23.312;2023-10-31T08:49:14;30.80;21.00
80695;DHT22;70059;42.702;23.312;2023-10-31T08:51:41;31.40;20.20
80695;DHT22;70059;42.702;23.312;2023-10-31T08:54:07;31.90;19.70
80695;DHT22;70059;42.702;23.312;2023-10-31T08:56:34;32.20;19.20
80695;DHT22;70059;42.702;23.312;2023-10-31T08:59:00;32.40;19.40
80695;DHT22;70059;42.702;23.312;2023-10-31T09:01:26;33.30;18.50
80695;DHT22;70059;42.702;23.312;2023-10-31T09:03:54;32.90;18.10
80695;DHT22;70059;42.702;23.312;2023-10-31T09:06:20;33.20;18.20
80695;DHT22;70059;42.702;23.312;2023-10-31T09:08:46;34.10;17.40
80695;DHT22;70059;42.702;23.312;2023-10-31T09:11:11;34.00;16.70
80695;DHT22;70059;42.702;23.312;2023-10-31T09:13:37;34.20;17.10
80695;DHT22;70059;42.702;23.312;2023-10-31T09:16:03;34.70;16.30
80695;DHT22;70059;42.702;23.312;2023-10-31T09:18:29;35.00;15.90
80695;DHT22;70059;42.702;23.312;2023-10-31T09:20:54;35.10;15.80
80695;DHT22;70059;42.702;23.312;2023-10-31T09:23:20;35.40;15.60
80695;DHT22;70059;42.702;23.312;2023-10-31T09:25:46;35.10;15.40
80695;DHT22;70059;42.702;23.312;2023-10-31T09:28:12;35.40;15.70
80695;DHT22;70059;42.702;23.312;2023-10-31T09:30:37;35.60;14.90
80695;DHT22;70059;42.702;23.312;2023-10-31T09:33:03;36.20;14.40
80695;DHT22;70059;42.702;23.312;2023-10-31T09:35:29;36.80;14.10
80695;DHT22;70059;42.702;23.312;2023-10-31T09:37:55;37.10;13.60
80695;DHT22;70059;42.702;23.312;2023-10-31T09:40:21;37.30;13.20
80695;DHT22;70059;42.702;23.312;2023-10-31T09:42:48;37.40;13.00
80695;DHT22;70059;42.702;23.312;2023-10-31T09:45:15;37.80;13.20
80695;DHT22;70059;42.702;23.312;2023-10-31T09:47:41;37.70;13.00
80695;DHT22;70059;42.702;23.312;2023-10-31T09:50:08;37.60;12.60
80695;DHT22;70059;42.702;23.312;2023-10-31T09:52:36;37.40;13.00
80695;DHT22;70059;42.702;23.312;2023-10-31T09:55:02;37.20;13.30
80695;DHT22;70059;42.702;23.312;2023-10-31T09:57:29;37.50;13.10
80695;DHT22;70059;42.702;23.312;2023-10-31T09:59:54;37.80;12.70
80695;DHT22;70059;42.702;23.312;2023-10-31T10:02:20;37.90;12.50
80695;DHT22;70059;42.702;23.312;2023-10-31T10:04:47;38.10;12.80
80695;DHT22;70059;42.702;23.312;2023-10-31T10:07:15;37.80;12.40
80695;DHT22;70059;42.702;23.312;2023-10-31T10:09:42;38.20;12.40
80695;DHT22;70059;42.702;23.312;2023-10-31T10:12:20;38.80;12.10
80695;DHT22;70059;42.702;23.312;2023-10-31T10:14:46;39.10;11.80
80695;DHT22;70059;42.702;23.312;2023-10-31T10:17:21;38.50;11.80
80695;DHT22;70059;42.702;23.312;2023-10-31T10:19:47;37.80;12.40
80695;DHT22;70059;42.702;23.312;2023-10-31T10:22:13;37.20;13.80
80695;DHT22;70059;42.702;23.312;2023-10-31T10:24:41;36.30;14.00
80695;DHT22;70059;42.702;23.312;2023-10-31T10:27:10;35.90;14.70
80695;DHT22;70059;42.702;23.312;2023-10-31T10:29:38;36.00;14.30
80695;DHT22;70059;42.702;23.312;2023-10-31T10:32:07;35.90;13.90
80695;DHT22;70059;42.702;23.312;2023-10-31T10:34:36;35.70;14.70
80695;DHT22;70059;42.702;23.312;2023-10-31T10:37:04;35.00;15.20
80695;DHT22;70059;42.702;23.312;2023-10-31T10:39:32;34.20;15.90
80695;DHT22;70059;42.702;23.312;2023-10-31T10:42:01;34.00;16.30
80695;DHT22;70059;42.702;23.312;2023-10-31T10:44:34;34.10;16.10
80695;DHT22;70059;42.702;23.312;2023-10-31T10:47:05;34.10;16.60
80695;DHT22;70059;42.702;23.312;2023-10-31T10:49:36;34.30;15.90
80695;DHT22;70059;42.702;23.312;2023-10-31T10:54:41;34.80;15.50
80695;DHT22;70059;42.702;23.312;2023-10-31T10:57:14;34.80;15.60
80695;DHT22;70059;42.702;23.312;2023-10-31T10:59:43;35.10;14.80
80695;DHT22;70059;42.702;23.312;2023-10-31T11:02:10;34.50;14.70
80695;DHT22;70059;42.702;23.312;2023-10-31T11:04:38;35.10;15.20
80695;DHT22;70059;42.702;23.312;2023-10-31T11:07:05;34.90;14.40
80695;DHT22;70059;42.702;23.312;2023-10-31T11:09:31;34.60;15.10
80695;DHT22;70059;42.702;23.312;2023-10-31T11:11:58;34.40;14.80
80695;DHT22;70059;42.702;23.312;2023-10-31T11:14:25;33.90;15.60
80695;DHT22;70059;42.702;23.312;2023-10-31T11:16:54;33.40;16.40
80695;DHT22;70059;42.702;23.312;2023-10-31T11:19:21;32.90;17.20
80695;DHT22;70059;42.702;23.312;2023-10-31T11:22:01;32.20;17.50
80695;DHT22;70059;42.702;23.312;2023-10-31T11:24:35;31.60;18.00
80695;DHT22;70059;42.702;23.312;2023-10-31T11:27:03;31.20;19.10
80695;DHT22;70059;42.702;23.312;2023-10-31T11:29:31;30.90;18.40
80695;DHT22;70059;42.702;23.312;2023-10-31T11:31:57;30.60;18.60
80695;DHT22;70059;42.702;23.312;2023-10-31T11:34:26;30.20;19.60
80695;DHT22;70059;42.702;23.312;2023-10-31T11:36:51;29.70;20.30
80695;DHT22;70059;42.702;23.312;2023-10-31T11:39:21;29.30;20.50
80695;DHT22;70059;42.702;23.312;2023-10-31T11:41:57;29.00;19.70
80695;DHT22;70059;42.702;23.312;2023-10-31T11:44:26;28.90;19.40
80695;DHT22;70059;42.702;23.312;2023-10-31T11:46:52;28.50;20.10
80695;DHT22;70059;42.702;23.312;2023-10-31T11:49:47;28.20;20.70
80695;DHT22;70059;42.702;23.312;2023-10-31T11:52:17;28.00;21.00
80695;DHT22;70059;42.702;23.312;2023-10-31T11:54:43;27.50;21.00
80695;DHT22;70059;42.702;23.312;2023-10-31T11:57:09;27.50;21.90
80695;DHT22;70059;42.702;23.312;2023-10-31T11:59:38;27.40;21.30
80695;DHT22;70059;42.702;23.312;2023-10-31T12:02:16;27.00;21.40
80695;DHT22;70059;42.702;23.312;2023-10-31T12:04:44;27.00;22.20
80695;DHT22;70059;42.702;23.312;2023-10-31T12:07:10;26.80;22.60
80695;DHT22;70059;42.702;23.312;2023-10-31T12:09:56;26.60;22.70
80695;DHT22;70059;42.702;23.312;2023-10-31T12:12:31;26.70;24.10
80695;DHT22;70059;42.702;23.312;2023-10-31T12:15:05;26.40;24.00
80695;DHT22;70059;42.702;23.312;2023-10-31T12:17:32;26.30;23.30
80695;DHT22;70059;42.702;23.312;2023-10-31T12:20:02;26.30;24.50
80695;DHT22;70059;42.702;23.312;2023-10-31T12:22:28;26.40;23.20
80695;DHT22;70059;42.702;23.312;2023-10-31T12:25:01;26.70;22.80
80695;DHT22;70059;42.702;23.312;2023-10-31T12:27:59;27.10;22.30
80695;DHT22;70059;42.702;23.312;2023-10-31T12:30:25;27.70;21.80
80695;DHT22;70059;42.702;23.312;2023-10-31T12:32:55;28.40;21.10
80695;DHT22;70059;42.702;23.312;2023-10-31T12:35:23;29.30;20.10
80695;DHT22;70059;42.702;23.312;2023-10-31T12:37:50;29.80;19.30
80695;DHT22;70059;42.702;23.312;2023-10-31T12:40:20;30.30;19.00
80695;DHT22;70059;42.702;23.312;2023-10-31T12:42:48;31.00;18.40
80695;DHT22;70059;42.702;23.312;2023-10-31T12:45:15;31.10;18.70
80695;DHT22;70059;42.702;23.312;2023-10-31T12:47:42;31.20;18.70
80695;DHT22;70059;42.702;23.312;2023-10-31T12:50:13;31.20;19.10
80695;DHT22;70059;42.702;23.312;2023-10-31T12:52:49;30.90;19.20
80695;DHT22;70059;42.702;23.312;2023-10-31T12:55:16;30.40;19.70
80695;DHT22;70059;42.702;23.312;2023-10-31T12:57:42;29.40;20.30
80695;DHT22;70059;42.702;23.312;2023-10-31T13:00:10;28.40;21.20
80695;DHT22;70059;42.702;23.312;2023-10-31T13:02:41;28.00;21.90
80695;DHT22;70059;42.702;23.312;2023-10-31T13:05:12;27.80;22.50
80695;DHT22;70059;42.702;23.312;2023-10-31T13:07:38;27.50;23.90
80695;DHT22;70059;42.702;23.312;2023-10-31T13:10:05;27.30;24.70
80695;DHT22;70059;42.702;23.312;2023-10-31T13:12:32;27.00;24.80
80695;DHT22;70059;42.702;23.312;2023-10-31T13:14:59;26.70;26.00
80695;DHT22;70059;42.702;23.312;2023-10-31T13:17:26;26.50;26.40
80695;DHT22;70059;42.702;23.312;2023-10-31T13:19:51;26.30;27.40
80695;DHT22;70059;42.702;23.312;2023-10-31T13:22:17;26.00;27.70
80695;DHT22;70059;42.702;23.312;2023-10-31T13:24:42;25.80;28.40
80695;DHT22;70059;42.702;23.312;2023-10-31T13:27:08;25.70;28.90
80695;DHT22;70059;42.702;23.312;2023-10-31T13:29:34;25.50;28.00
80695;DHT22;70059;42.702;23.312;2023-10-31T13:32:00;25.40;27.90
80695;DHT22;70059;42.702;23.312;2023-10-31T13:34:25;25.30;28.20
80695;DHT22;70059;42.702;23.312;2023-10-31T13:36:51;25.60;27.90
80695;DHT22;70059;42.702;23.312;2023-10-31T13:39:18;26.00;26.90
80695;DHT22;70059;42.702;23.312;2023-10-31T13:41:43;26.50;26.60
80695;DHT22;70059;42.702;23.312;2023-10-31T13:44:09;27.00;27.00
80695;DHT22;70059;42.702;23.312;2023-10-31T13:46:34;27.30;25.50
80695;DHT22;70059;42.702;23.312;2023-10-31T13:49:00;27.50;25.80
80695;DHT22;70059;42.702;23.312;2023-10-31T13:51:26;27.40;25.40
80695;DHT22;70059;42.702;23.312;2023-10-31T13:53:52;27.40;25.50
80695;DHT22;70059;42.702;23.312;2023-10-31T13:56:17;27.30;25.80
80695;DHT22;70059;42.702;23.312;2023-10-31T13:58:43;27.10;25.50
80695;DHT22;70059;42.702;23.312;2023-10-31T14:01:08;26.90;26.10
80695;DHT22;70059;42.702;23.312;2023-10-31T14:03:34;26.80;26.40
80695;DHT22;70059;42.702;23.312;2023-10-31T14:06:00;26.50;26.60
80695;DHT22;70059;42.702;23.312;2023-10-31T14:08:25;26.20;27.20
80695;DHT22;70059;42.702;23.312;2023-10-31T14:10:51;25.90;27.50
80695;DHT22;70059;42.702;23.312;2023-10-31T14:13:17;25.70;28.40
80695;DHT22;70059;42.702;23.312;2023-10-31T14:15:44;25.50;29.00
80695;DHT22;70059;42.702;23.312;2023-10-31T14:18:09;25.30;29.60
80695;DHT22;70059;42.702;23.312;2023-10-31T14:20:35;25.10;30.00
80695;DHT22;70059;42.702;23.312;2023-10-31T14:23:00;24.80;30.20
80695;DHT22;70059;42.702;23.312;2023-10-31T14:25:26;24.60;30.20
80695;DHT22;70059;42.702;23.312;2023-10-31T14:27:52;24.30;30.80
80695;DHT22;70059;42.702;23.312;2023-10-31T14:30:17;24.10;31.70
80695;DHT22;70059;42.702;23.312;2023-10-31T14:32:43;23.80;32.50
80695;DHT22;70059;42.702;23.312;2023-10-31T14:35:09;23.60;33.10
80695;DHT22;70059;42.702;23.312;2023-10-31T14:37:35;23.40;33.90
80695;DHT22;70059;42.702;23.312;2023-10-31T14:40:01;23.20;34.00
80695;DHT22;70059;42.702;23.312;2023-10-31T14:42:28;23.00;34.80
80695;DHT22;70059;42.702;23.312;2023-10-31T14:44:54;22.90;35.50
80695;DHT22;70059;42.702;23.312;2023-10-31T14:47:22;22.70;35.70
80695;DHT22;70059;42.702;23.312;2023-10-31T14:49:47;22.50;35.60
80695;DHT22;70059;42.702;23.312;2023-10-31T14:52:13;22.40;35.90
80695;DHT22;70059;42.702;23.312;2023-10-31T14:54:39;22.30;36.30
80695;DHT22;70059;42.702;23.312;2023-10-31T14:57:05;22.20;36.60
80695;DHT22;70059;42.702;23.312;2023-10-31T14:59:31;22.00;37.00
80695;DHT22;70059;42.702;23.312;2023-10-31T15:01:56;22.00;37.70
80695;DHT22;70059;42.702;23.312;2023-10-31T15:04:22;21.80;38.00
80695;DHT22;70059;42.702;23.312;2023-10-31T15:06:48;21.80;38.20
80695;DHT22;70059;42.702;23.312;2023-10-31T15:09:13;21.70;37.60
80695;DHT22;70059;42.702;23.312;2023-10-31T15:11:40;21.60;38.00
80695;DHT22;70059;42.702;23.312;2023-10-31T15:14:06;21.50;38.40